Time;durP1;ratioP1;P1;durP2;ratioP2;P2;SDS_P1;SDS_P2;PMS_P1;PMS_P2;Temp;Humidity;BMP_temperature;BMP_pressure;BME280_temperature;BME280_humidity;BME280_pressure;Samples;Min_cycle;Max_cycle;Signal;HPM_P1;HPM_P2
2023/03/24 00:00:59;;;;;;;4.07;2.33;;;;;;;10.62;100.00;99732.91;5033514;28;20378;-69
2023/03/24 00:03:25;;;;;;;4.80;2.30;;;;;;;10.62;100.00;99738.09;5048034;28;20036;-69
2023/03/24 00:06:00;;;;;;;4.60;2.33;;;;;;;10.62;100.00;99723.41;5047987;28;20029;-69
2023/03/24 00:08:29;;;;;;;4.57;2.40;;;;;;;10.64;100.00;99716.53;5044902;28;20029;-69
2023/03/24 00:10:57;;;;;;;3.10;2.22;;;;;;;10.65;100.00;99714.84;5028873;28;20040;-70
2023/03/24 00:13:23;;;;;;;3.33;2.30;;;;;;;10.65;100.00;99701.88;5043678;28;20037;-70
2023/03/24 00:15:48;;;;;;;4.60;2.60;;;;;;;10.68;100.00;99709.69;5048213;28;20035;-70
2023/03/24 00:18:14;;;;;;;3.70;2.30;;;;;;;10.71;100.00;99707.13;5047274;28;20036;-70
2023/03/24 00:20:41;;;;;;;5.35;3.00;;;;;;;10.72;100.00;99687.28;5046247;28;20020;-70
2023/03/24 00:23:06;;;;;;;3.90;2.55;;;;;;;10.75;100.00;99689.91;5032645;28;20103;-70
2023/03/24 00:25:35;;;;;;;5.93;2.58;;;;;;;10.76;100.00;99705.47;5045665;28;20430;-70
2023/03/24 00:28:01;;;;;;;5.95;3.20;;;;;;;10.80;100.00;99693.41;5045768;28;20021;-69
2023/03/24 00:30:27;;;;;;;3.20;2.45;;;;;;;10.87;100.00;99702.13;5051194;28;20024;-69
2023/03/24 00:32:52;;;;;;;4.07;2.17;;;;;;;10.91;100.00;99688.38;5050868;28;20055;-69
2023/03/24 00:35:18;;;;;;;4.72;2.10;;;;;;;10.94;100.00;99691.00;5050263;28;20388;-69
2023/03/24 00:37:44;;;;;;;3.65;2.17;;;;;;;11.01;100.00;99702.31;5037077;28;20037;-69
2023/03/24 00:40:15;;;;;;;3.30;2.00;;;;;;;11.09;100.00;99673.88;5051787;28;20021;-69
2023/03/24 00:42:44;;;;;;;;;;;;;;;11.11;100.00;99685.16;5050782;28;20032;-69
2023/03/24 00:45:12;;;;;;;2.33;1.90;;;;;;;11.14;100.00;99670.50;5050949;28;20276;-69
2023/03/24 00:47:37;;;;;;;4.15;2.50;;;;;;;11.16;100.00;99667.91;5046929;28;20021;-69
2023/03/24 00:50:09;;;;;;;2.60;2.08;;;;;;;11.20;100.00;99669.69;5049825;28;20029;-70
2023/03/24 00:52:34;;;;;;;;;;;;;;;11.22;100.00;99660.22;5049677;28;20668;-69
2023/03/24 00:55:02;;;;;;;1.92;1.70;;;;;;;11.23;100.00;99661.94;5047453;28;19923;-69
2023/03/24 00:57:33;;;;;;;4.43;1.80;;;;;;;11.25;100.00;99660.25;5045936;28;20380;-69
2023/03/24 01:00:11;;;;;;;2.05;1.40;;;;;;;11.28;100.00;99652.47;5051896;28;20021;-70
2023/03/24 01:02:36;;;;;;;3.72;1.77;;;;;;;11.31;100.00;99661.16;5047524;28;20149;-70
2023/03/24 01:05:01;;;;;;;3.17;1.45;;;;;;;11.33;100.00;99643.88;5050398;28;20031;-70
2023/03/24 01:07:29;;;;;;;3.08;1.80;;;;;;;11.33;100.00;99636.97;5050813;28;20032;-69
2023/03/24 01:09:58;;;;;;;3.75;2.10;;;;;;;11.33;100.00;99639.59;5050199;28;20020;-70
2023/03/24 01:12:35;;;;;;;3.53;1.92;;;;;;;11.33;100.00;99643.88;5050458;28;20095;-70
2023/03/24 01:15:04;;;;;;;4.50;1.92;;;;;;;11.34;100.00;99640.44;5050545;28;20039;-70
2023/03/24 01:17:30;;;;;;;3.40;1.98;;;;;;;11.33;100.00;99630.91;5051049;28;20029;-69
2023/03/24 01:19:56;;;;;;;2.55;1.35;;;;;;;11.31;100.00;99636.09;5050223;28;20040;-70
2023/03/24 01:22:27;;;;;;;3.42;1.73;;;;;;;11.29;100.00;99633.50;5050528;28;20036;-70
2023/03/24 01:24:52;;;;;;;2.95;2.30;;;;;;;11.28;100.00;99634.31;5050113;28;20471;-70
2023/03/24 01:27:18;;;;;;;2.35;1.92;;;;;;;11.26;100.00;99630.00;5050265;28;20108;-69
2023/03/24 01:29:43;;;;;;;3.72;2.05;;;;;;;11.22;100.00;99616.13;5049453;28;20035;-70
2023/03/24 01:32:09;;;;;;;3.13;2.08;;;;;;;11.18;100.00;99622.13;5050530;28;20017;-70
2023/03/24 01:34:34;;;;;;;3.10;2.17;;;;;;;11.13;100.00;99623.81;5049220;28;20278;-70
2023/03/24 01:37:00;;;;;;;4.20;2.05;;;;;;;11.09;100.00;99625.50;5050662;28;20021;-69
2023/03/24 01:39:26;;;;;;;3.72;2.17;;;;;;;11.09;100.00;99609.94;5049023;28;20024;-69
2023/03/24 01:41:52;;;;;;;3.65;2.10;;;;;;;11.07;100.00;99606.47;5049792;28;20021;-69
2023/03/24 01:44:32;;;;;;;4.68;2.40;;;;;;;11.06;100.00;99604.75;5048639;28;20021;-70
2023/03/24 01:46:57;;;;;;;3.20;2.20;;;;;;;11.02;100.00;99606.44;5049135;28;20024;-70
2023/03/24 01:49:28;;;;;;;6.32;2.13;;;;;;;10.99;100.00;99597.75;5037655;28;20033;-70
2023/03/24 01:51:58;;;;;;;3.23;2.40;;;;;;;10.99;100.00;99603.78;5049967;28;20028;-69
2023/03/24 01:54:32;;;;;;;4.00;2.73;;;;;;;10.99;100.00;99598.59;5042093;28;20146;-69
2023/03/24 01:57:13;;;;;;;2.88;2.15;;;;;;;10.98;100.00;99594.28;5035597;28;20474;-69
2023/03/24 01:59:41;;;;;;;3.10;2.30;;;;;;;10.99;100.00;99590.81;5050172;28;20021;-69
2023/03/24 02:02:08;;;;;;;3.30;2.15;;;;;;;10.97;100.00;99584.78;5049327;28;20481;-70
2023/03/24 02:04:41;;;;;;;3.10;1.95;;;;;;;10.97;100.00;99584.78;5050134;28;20392;-70
2023/03/24 02:07:14;;;;;;;3.45;1.85;;;;;;;10.97;100.00;99589.97;5044908;28;20576;-70
2023/03/24 02:09:40;;;;;;;2.83;2.17;;;;;;;10.98;100.00;99585.63;5042725;28;20082;-70
2023/03/24 02:12:05;;;;;;;4.38;2.30;;;;;;;10.97;100.00;99583.91;5044890;28;20092;-70
2023/03/24 02:14:31;;;;;;;3.13;2.25;;;;;;;10.96;100.00;99569.19;5037360;28;20363;-69
2023/03/24 02:17:10;;;;;;;3.67;2.60;;;;;;;10.96;100.00;99570.06;5043572;28;20033;-70
2023/03/24 02:20:13;;;;;;;3.75;2.65;;;;;;;10.96;100.00;99583.03;5029832;28;20112;-70
2023/03/24 02:23:00;;;;;;;3.53;2.53;;;;;;;10.96;100.00;99589.91;5029746;28;20041;-69
2023/03/24 02:26:02;;;;;;;3.10;2.58;;;;;;;10.96;100.00;99582.16;5029516;28;20043;-70
2023/03/24 02:28:53;;;;;;;3.33;2.58;;;;;;;10.95;100.00;99586.47;5029548;28;20124;-69
2023/03/24 02:31:24;;;;;;;3.20;2.90;;;;;;;10.94;100.00;99589.91;5029526;28;20029;-70
2023/03/24 02:34:15;;;;;;;5.63;2.92;;;;;;;10.95;100.00;99581.28;5030184;28;20025;-69
2023/03/24 02:36:49;;;;;;;3.08;2.63;;;;;;;10.95;100.00;99589.06;5030028;28;20024;-70
2023/03/24 02:39:21;;;;;;;4.80;2.70;;;;;;;10.96;100.00;99575.25;5029714;28;20083;-70
2023/03/24 02:41:55;;;;;;;3.22;2.75;;;;;;;10.99;100.00;99588.22;5038916;28;20032;-70
2023/03/24 02:44:26;;;;;;;3.60;3.13;;;;;;;10.96;100.00;99567.47;5036665;28;20071;-70
2023/03/24 02:46:54;;;;;;;;;;;;;;;10.98;100.00;99573.53;5040762;28;20025;-70
2023/03/24 02:49:41;;;;;;;5.00;3.83;;;;;;;10.96;100.00;99575.25;5048328;28;19917;-70
2023/03/24 02:52:29;;;;;;;4.15;3.35;;;;;;;10.95;100.00;99585.59;5041199;28;20021;-70
2023/03/24 02:55:08;;;;;;;5.88;2.72;;;;;;;10.94;100.00;99587.31;5046208;28;20028;-70
2023/03/24 02:58:06;;;;;;;3.33;2.95;;;;;;;10.93;100.00;99594.25;5029696;28;20420;-70
2023/03/24 03:00:41;;;;;;;4.30;2.92;;;;;;;10.95;100.00;99596.84;5031294;28;20037;-69
2023/03/24 03:03:29;;;;;;;2.78;2.58;;;;;;;10.93;100.00;99604.63;5048506;28;20025;-70
2023/03/24 03:06:14;;;;;;;3.08;2.53;;;;;;;10.97;100.00;99626.25;5048129;28;20516;-70
2023/03/24 03:08:40;;;;;;;2.50;2.30;;;;;;;10.97;100.00;99628.84;5047154;28;20033;-70
2023/03/24 03:11:10;;;;;;;4.03;2.20;;;;;;;10.99;100.00;99639.22;5048547;28;20123;-70
2023/03/24 03:13:40;;;;;;;3.25;2.08;;;;;;;10.99;100.00;99641.81;5043480;28;20087;-70
2023/03/24 03:16:16;;;;;;;2.58;1.95;;;;;;;10.97;100.00;99641.81;5041343;28;20044;-70
2023/03/24 03:18:49;;;;;;;3.10;2.00;;;;;;;10.92;100.00;99644.31;5028917;28;20482;-70
2023/03/24 03:21:17;;;;;;;2.67;1.90;;;;;;;10.94;100.00;99662.47;5029657;28;20104;-70
2023/03/24 03:23:51;;;;;;;1.95;1.65;;;;;;;10.92;100.00;99672.84;5037058;28;20124;-70
2023/03/24 03:26:25;;;;;;;1.92;1.75;;;;;;;10.89;100.00;99669.34;5032335;28;20505;-70
2023/03/24 03:28:56;;;;;;;1.88;1.15;;;;;;;10.83;100.00;99669.28;5029043;28;20089;-70
2023/03/24 03:31:48;;;;;;;2.97;1.33;;;;;;;10.79;100.00;99674.41;5045236;28;20079;-69
2023/03/24 03:34:27;;;;;;;1.85;1.27;;;;;;;10.73;100.00;99684.69;5046098;28;20551;-70
2023/03/24 03:37:30;;;;;;;2.10;1.20;;;;;;;10.66;100.00;99713.97;5043451;28;20031;-69
2023/03/24 03:39:58;;;;;;;2.13;1.33;;;;;;;10.57;100.00;99725.97;5031205;28;20079;-70
2023/03/24 03:42:24;;;;;;;3.47;1.20;;;;;;;10.53;100.00;99728.47;5043702;28;20021;-69
2023/03/24 03:44:50;;;;;;;1.80;1.05;;;;;;;10.48;100.00;99733.59;5042584;28;20094;-70
2023/03/24 03:47:15;;;;;;;4.90;1.30;;;;;;;10.43;100.00;99717.09;5030031;28;20068;-70
2023/03/24 03:49:42;;;;;;;1.77;1.00;;;;;;;10.41;100.00;99742.09;5048053;28;20033;-69
2023/03/24 03:52:07;;;;;;;3.78;1.00;;;;;;;10.37;100.00;99753.22;5035997;28;20096;-69
2023/03/24 03:54:33;;;;;;;3.20;0.95;;;;;;;10.33;100.00;99750.59;5041393;28;20037;-69
2023/03/24 03:56:59;;;;;;;2.40;1.13;;;;;;;10.29;100.00;99758.31;5036423;28;20489;-70
2023/03/24 03:59:26;;;;;;;2.15;1.15;;;;;;;10.23;100.00;99747.84;5040687;28;20095;-70
2023/03/24 04:01:52;;;;;;;4.85;2.30;;;;;;;10.16;100.00;99773.66;5028782;28;20033;-70
2023/03/24 04:04:38;;;;;;;5.93;2.90;;;;;;;10.11;100.00;99769.22;5032024;28;20017;-70
2023/03/24 04:07:21;;;;;;;6.82;3.45;;;;;;;10.00;100.00;99769.91;5040027;28;20642;-69
2023/03/24 04:10:07;;;;;;;6.93;2.72;;;;;;;9.94;100.00;99795.69;5038409;28;20025;-69
2023/03/24 04:12:52;;;;;;;6.85;3.55;;;;;;;9.93;100.00;99796.53;5051665;28;20074;-69
2023/03/24 04:15:54;;;;;;;6.55;2.22;;;;;;;9.86;100.00;99798.13;5052030;28;20023;-70
2023/03/24 04:18:47;;;;;;;6.88;2.38;;;;;;;9.79;100.00;99804.91;5039123;28;20037;-70
2023/03/24 04:21:32;;;;;;;4.15;2.10;;;;;;;9.76;100.00;99814.31;5051089;28;20021;-69
2023/03/24 04:24:26;;;;;;;5.38;1.90;;;;;;;9.73;100.00;99835.84;5050984;28;20366;-69
2023/03/24 04:27:13;;;;;;;3.45;1.50;;;;;;;9.69;100.00;99831.44;5052162;28;20036;-69
2023/03/24 04:29:52;;;;;;;2.58;1.67;;;;;;;9.61;100.00;99819.25;5039732;28;20060;-69
2023/03/24 04:32:32;;;;;;;4.20;1.95;;;;;;;9.55;100.00;99820.84;5050387;28;20040;-69
2023/03/24 04:35:05;;;;;;;4.63;1.88;;;;;;;9.40;100.00;99823.97;5051652;28;20031;-69
2023/03/24 04:37:36;;;;;;;5.38;1.48;;;;;;;9.39;100.00;99830.00;5051857;28;20025;-69
2023/03/24 04:40:07;;;;;;;6.82;1.55;;;;;;;9.35;100.00;99837.66;5037487;28;20100;-69
2023/03/24 04:42:38;;;;;;;;;;;;;;;9.33;100.00;99843.66;5045484;28;20044;-69
2023/03/24 04:45:05;;;;;;;5.65;1.20;;;;;;;9.30;100.00;99844.47;5031782;28;19916;-70
2023/03/24 04:47:41;;;;;;;2.83;1.33;;;;;;;9.29;100.00;99847.91;5031268;28;20032;-69
2023/03/24 04:50:10;;;;;;;3.67;1.27;;;;;;;9.24;100.00;99852.09;5032071;28;20017;-69
2023/03/24 04:52:36;;;;;;;4.25;1.52;;;;;;;9.21;100.00;99862.38;5051296;28;20469;-69
2023/03/24 04:55:17;;;;;;;7.85;1.55;;;;;;;9.18;100.00;99852.84;5049462;28;20063;-69
2023/03/24 04:57:42;;;;;;;7.88;2.17;;;;;;;9.13;100.00;99863.09;5036043;28;20103;-69
2023/03/24 05:00:08;;;;;;;6.95;1.98;;;;;;;9.01;100.00;99853.31;5035408;28;20458;-68
2023/03/24 05:02:34;;;;;;;5.45;2.25;;;;;;;8.97;100.00;99860.97;5040269;28;20066;-70
2023/03/24 05:05:00;;;;;;;6.40;2.08;;;;;;;8.98;100.00;99865.28;5037909;28;20051;-69
2023/03/24 05:07:26;;;;;;;5.10;1.77;;;;;;;8.95;100.00;99873.88;5037576;28;20503;-69
2023/03/24 05:09:51;;;;;;;4.65;1.95;;;;;;;8.91;100.00;99860.81;5051383;28;20021;-70
2023/03/24 05:12:16;;;;;;;11.00;2.58;;;;;;;8.89;100.00;99879.75;5040178;28;20025;-69
2023/03/24 05:14:42;;;;;;;10.25;3.13;;;;;;;8.87;100.00;99876.25;5045870;28;20032;-69
2023/03/24 05:17:07;;;;;;;7.97;2.17;;;;;;;8.82;100.00;99875.28;5036693;28;20023;-69
2023/03/24 05:19:32;;;;;;;8.13;2.53;;;;;;;8.78;100.00;99891.53;5038052;28;20028;-69
2023/03/24 05:21:57;;;;;;;6.03;1.95;;;;;;;8.76;100.00;99890.66;5035645;28;20028;-70
2023/03/24 05:24:23;;;;;;;7.32;2.95;;;;;;;8.75;100.00;99894.06;5048225;28;20029;-68
2023/03/24 05:26:48;;;;;;;7.22;1.92;;;;;;;8.74;100.00;99900.06;5047188;28;20025;-69
2023/03/24 05:29:13;;;;;;;7.30;2.00;;;;;;;8.74;100.00;99900.06;5047181;28;20111;-69
2023/03/24 05:31:38;;;;;;;6.72;2.28;;;;;;;8.72;100.00;99904.31;5051493;28;20024;-69
2023/03/24 05:34:04;;;;;;;9.05;2.00;;;;;;;8.70;100.00;99913.72;5053952;28;20082;-69
2023/03/24 05:36:29;;;;;;;6.78;2.17;;;;;;;8.69;100.00;99909.41;5041255;28;20017;-69
2023/03/24 05:38:54;;;;;;;6.40;2.58;;;;;;;8.65;100.00;99914.47;5039080;28;20020;-69
2023/03/24 05:41:20;;;;;;;8.35;1.75;;;;;;;8.67;100.00;99909.34;5038223;28;20040;-69
2023/03/24 05:43:45;;;;;;;6.30;2.15;;;;;;;8.69;100.00;99914.59;5040633;28;20032;-69
2023/03/24 05:46:10;;;;;;;7.55;1.92;;;;;;;8.67;100.00;99918.84;5036801;28;20041;-69
2023/03/24 05:48:35;;;;;;;6.20;2.22;;;;;;;8.66;100.00;99923.13;5031690;28;20052;-69
2023/03/24 05:51:01;;;;;;;6.07;1.90;;;;;;;8.66;100.00;99928.28;5031359;28;20350;-69
2023/03/24 05:53:26;;;;;;;8.15;2.17;;;;;;;8.69;100.00;99932.66;5030987;28;20046;-70
2023/03/24 05:55:52;;;;;;;12.35;2.72;;;;;;;8.69;100.00;99935.25;5030153;28;20029;-69
2023/03/24 05:58:20;;;;;;;6.97;2.42;;;;;;;8.69;100.00;99932.66;5041538;28;20021;-69
2023/03/24 06:00:45;;;;;;;6.30;1.80;;;;;;;8.69;100.00;99928.34;5046742;28;20389;-69
2023/03/24 06:03:12;;;;;;;10.50;2.72;;;;;;;8.73;100.00;99935.34;5040843;28;20033;-69
2023/03/24 06:05:38;;;;;;;6.03;2.83;;;;;;;8.73;100.00;99940.53;5038166;28;20090;-69
2023/03/24 06:08:03;;;;;;;9.82;2.25;;;;;;;8.76;100.00;99925.09;5037268;28;20063;-69
2023/03/24 06:10:29;;;;;;;5.70;2.15;;;;;;;8.79;100.00;99937.22;5033454;28;20462;-69
2023/03/24 06:12:55;;;;;;;8.50;2.03;;;;;;;8.82;100.00;99937.28;5043579;28;20044;-69
2023/03/24 06:15:23;;;;;;;7.30;2.42;;;;;;;8.84;100.00;99938.19;5035990;28;20021;-68
2023/03/24 06:17:49;;;;;;;7.93;2.17;;;;;;;8.88;100.00;99932.28;5042770;28;20025;-69
2023/03/24 06:20:17;;;;;;;10.20;2.95;;;;;;;8.93;100.00;99941.84;5040237;28;20028;-69
2023/03/24 06:22:46;;;;;;;7.65;1.67;;;;;;;8.97;100.00;99943.66;5032606;28;20111;-69
2023/03/24 06:25:14;;;;;;;13.75;2.53;;;;;;;8.98;100.00;99951.47;5036349;28;20025;-69
2023/03/24 06:27:45;;;;;;;10.50;2.45;;;;;;;8.99;100.00;99957.50;5034861;28;20111;-69
2023/03/24 06:30:11;;;;;;;8.13;1.90;;;;;;;9.07;100.00;99958.56;5046718;28;20056;-69
2023/03/24 06:32:37;;;;;;;9.05;2.22;;;;;;;9.15;100.00;99965.63;5036824;28;20468;-69
2023/03/24 06:35:02;;;;;;;7.82;1.83;;;;;;;9.23;100.00;99966.66;5041090;28;20037;-69
2023/03/24 06:37:27;;;;;;;10.70;2.42;;;;;;;9.28;100.00;99977.13;5039138;28;20502;-69
2023/03/24 06:39:53;;;;;;;10.30;2.25;;;;;;;9.30;100.00;99978.06;5031913;28;20029;-70
2023/03/24 06:42:18;;;;;;;8.95;1.90;;;;;;;9.28;100.00;99978.03;5036402;28;20033;-69
2023/03/24 06:44:43;;;;;;;7.80;1.90;;;;;;;9.26;100.00;99977.09;5031990;28;20025;-69
2023/03/24 06:47:09;;;;;;;7.57;2.00;;;;;;;9.23;100.00;99979.59;5040718;28;20107;-68
2023/03/24 06:49:36;;;;;;;9.27;1.90;;;;;;;9.31;100.00;99972.91;5031080;28;20052;-68
2023/03/24 06:52:01;;;;;;;11.50;2.50;;;;;;;9.53;100.00;99970.81;5035730;28;20025;-68
2023/03/24 06:54:27;;;;;;;8.45;2.08;;;;;;;9.68;100.00;99977.16;5030439;28;20029;-69
2023/03/24 06:56:52;;;;;;;6.63;2.00;;;;;;;9.95;100.00;99968.22;5033424;28;20040;-69
2023/03/24 06:59:22;;;;;;;15.40;2.72;;;;;;;10.43;100.00;99981.25;5033908;28;20025;-68
2023/03/24 07:01:49;;;;;;;10.10;2.40;;;;;;;10.79;100.00;99980.19;5038221;28;20082;-69
2023/03/24 07:04:14;;;;;;;9.48;1.95;;;;;;;11.09;100.00;99978.09;5038679;28;20029;-69
2023/03/24 07:06:41;;;;;;;7.78;1.75;;;;;;;11.37;100.00;99980.25;5029514;28;20033;-69
2023/03/24 07:09:07;;;;;;;11.82;2.20;;;;;;;11.61;100.00;99982.31;5027362;28;20115;-69
2023/03/24 07:11:32;;;;;;;12.02;3.75;;;;;;;11.72;100.00;99979.88;5030766;28;20032;-69
2023/03/24 07:13:57;;;;;;;9.15;2.30;;;;;;;11.92;100.00;99983.59;5029667;28;20489;-69
2023/03/24 07:16:23;;;;;;;6.97;2.22;;;;;;;11.91;100.00;99994.84;5028285;28;20516;-69
2023/03/24 07:18:48;;;;;;;8.43;2.25;;;;;;;11.75;100.00;99992.91;5031010;28;20025;-69
2023/03/24 07:21:13;;;;;;;8.98;1.75;;;;;;;11.74;100.00;99998.94;5030262;28;20072;-69
2023/03/24 07:23:39;;;;;;;9.27;1.58;;;;;;;11.64;100.00;99997.94;5030708;28;20025;-69
2023/03/24 07:26:05;;;;;;;10.25;2.50;;;;;;;11.71;100.00;100004.06;5031264;28;20022;-68
2023/03/24 07:28:30;;;;;;;8.77;1.95;;;;;;;11.86;100.00;100010.34;5030271;28;20043;-69
2023/03/24 07:30:55;;;;;;;11.93;2.03;;;;;;;11.99;100.00;100014.84;5029079;28;20029;-69
2023/03/24 07:33:23;;;;;;;8.15;2.03;;;;;;;12.23;100.00;100008.22;5031048;28;20393;-69
2023/03/24 07:35:48;;;;;;;9.18;1.92;;;;;;;12.40;100.00;100009.28;5026766;28;20489;-69
2023/03/24 07:38:13;;;;;;;9.30;2.17;;;;;;;12.46;99.77;100020.63;5030791;28;20030;-69
2023/03/24 07:40:38;;;;;;;9.23;2.00;;;;;;;12.80;100.00;100011.44;5029589;28;20104;-69
2023/03/24 07:43:04;;;;;;;11.10;2.05;;;;;;;13.18;99.80;100018.72;5037966;28;20037;-69
2023/03/24 07:45:31;;;;;;;8.50;2.40;;;;;;;13.47;94.55;100013.72;5035120;28;20024;-69
2023/03/24 07:48:00;;;;;;;10.40;2.15;;;;;;;13.71;93.32;100019.97;5035137;28;20120;-69
2023/03/24 07:50:29;;;;;;;11.02;2.50;;;;;;;13.59;90.67;100011.22;5030281;28;20029;-69
2023/03/24 07:52:55;;;;;;;5.95;2.00;;;;;;;13.48;92.44;100018.91;5036691;28;20072;-69
2023/03/24 07:55:20;;;;;;;11.35;2.50;;;;;;;13.69;92.55;100032.97;5040381;28;20173;-69
2023/03/24 07:57:47;;;;;;;7.75;2.08;;;;;;;13.59;93.96;100039.84;5054295;28;20025;-69
2023/03/24 08:00:18;;;;;;;11.88;2.90;;;;;;;13.71;92.94;100041.66;5046549;28;20017;-69
2023/03/24 08:02:50;;;;;;;5.72;1.45;;;;;;;13.41;94.17;100033.63;5036608;28;20103;-69
2023/03/24 08:05:19;;;;;;;8.48;2.50;;;;;;;12.89;96.00;100045.31;5047066;28;20524;-69
2023/03/24 08:07:52;;;;;;;12.38;2.08;;;;;;;12.49;97.69;100051.84;5038571;28;20544;-69
2023/03/24 08:10:19;;;;;;;7.75;2.70;;;;;;;12.23;100.00;100046.34;5028831;28;20021;-69
2023/03/24 08:12:45;;;;;;;13.13;3.08;;;;;;;12.12;100.00;100047.06;5028298;28;20060;-69
2023/03/24 08:15:10;;;;;;;7.13;2.10;;;;;;;12.15;100.00;100046.22;5041601;28;20053;-69
2023/03/24 08:17:36;;;;;;;8.90;2.28;;;;;;;11.88;100.00;100055.38;5028645;28;20045;-69
2023/03/24 08:20:12;;;;;;;14.13;3.10;;;;;;;11.73;100.00;100059.47;5026715;28;20013;-69
2023/03/24 08:22:41;;;;;;;10.75;2.13;;;;;;;11.55;100.00;100072.19;5028014;28;20040;-69
2023/03/24 08:25:07;;;;;;;9.23;2.60;;;;;;;11.56;100.00;100060.94;5027857;28;20382;-69
2023/03/24 08:27:32;;;;;;;9.55;2.10;;;;;;;12.03;100.00;100074.59;5040548;28;20029;-69
2023/03/24 08:29:58;;;;;;;5.82;1.63;;;;;;;12.32;100.00;100079.34;5033671;28;20098;-69
2023/03/24 08:32:23;;;;;;;11.05;1.88;;;;;;;12.88;100.00;100082.56;5045478;28;20043;-69
2023/03/24 08:34:48;;;;;;;7.00;1.77;;;;;;;13.31;95.72;100063.03;5031039;28;20033;-68
2023/03/24 08:37:13;;;;;;;10.13;1.85;;;;;;;13.97;96.40;100073.94;5037853;28;20068;-69
2023/03/24 08:39:39;;;;;;;9.65;1.77;;;;;;;13.85;90.15;100074.72;5034896;28;20084;-69
2023/03/24 08:42:04;;;;;;;9.50;2.00;;;;;;;13.89;88.12;100081.69;5039345;28;20382;-69
2023/03/24 08:44:29;;;;;;;8.00;2.38;;;;;;;13.53;86.46;100074.50;5045093;28;20546;-69
2023/03/24 08:46:55;;;;;;;6.80;2.30;;;;;;;13.80;87.86;100077.28;5047039;28;20029;-69
2023/03/24 08:49:20;;;;;;;8.25;2.70;;;;;;;13.89;88.52;100085.16;5039623;28;20025;-70
2023/03/24 08:51:46;;;;;;;9.07;1.60;;;;;;;13.81;88.74;100089.47;5046481;28;20028;-69
2023/03/24 08:54:12;;;;;;;8.65;2.30;;;;;;;13.81;89.84;100082.50;5037724;28;20053;-69
2023/03/24 08:56:38;;;;;;;6.25;1.98;;;;;;;13.64;87.60;100092.81;5043470;28;20392;-69
2023/03/24 08:59:04;;;;;;;7.05;2.10;;;;;;;13.27;88.24;100084.69;5049623;28;20112;-69
2023/03/24 09:01:29;;;;;;;6.38;1.98;;;;;;;12.85;88.77;100087.75;5041879;28;20056;-69
2023/03/24 09:03:56;;;;;;;6.88;1.80;;;;;;;12.64;91.34;100091.88;5050048;28;20025;-69
2023/03/24 09:06:21;;;;;;;8.75;2.17;;;;;;;12.36;93.72;100087.19;5045872;28;20106;-69
2023/03/24 09:08:46;;;;;;;10.88;2.17;;;;;;;12.23;95.13;100090.50;5044864;28;20075;-70
2023/03/24 09:11:17;;;;;;;8.07;2.10;;;;;;;12.02;96.43;100089.31;5047311;28;20407;-70
2023/03/24 09:13:42;;;;;;;7.40;2.05;;;;;;;11.70;97.52;100095.78;5046742;28;20465;-69
2023/03/24 09:16:08;;;;;;;8.77;1.70;;;;;;;11.52;98.15;100099.81;5044978;28;20027;-69
2023/03/24 09:18:33;;;;;;;9.65;2.20;;;;;;;11.54;100.00;100099.84;5045699;28;20036;-69
2023/03/24 09:20:58;;;;;;;7.10;1.95;;;;;;;11.62;100.00;100107.78;5044482;28;20017;-69
2023/03/24 09:23:24;;;;;;;6.53;1.95;;;;;;;11.57;99.47;100105.09;5044525;28;20021;-69
2023/03/24 09:25:52;;;;;;;9.52;2.38;;;;;;;11.68;98.39;100106.97;5034613;28;20180;-69
2023/03/24 09:28:19;;;;;;;12.02;1.70;;;;;;;11.79;99.43;100104.53;5039801;28;20071;-69
2023/03/24 09:30:44;;;;;;;10.00;2.42;;;;;;;11.83;100.00;100103.75;5037816;28;20033;-69
2023/03/24 09:33:09;;;;;;;9.05;2.00;;;;;;;11.83;100.00;100116.72;5037587;28;20096;-69
2023/03/24 09:35:35;;;;;;;8.02;1.88;;;;;;;11.79;100.00;100109.72;5046439;28;20036;-69
2023/03/24 09:38:00;;;;;;;8.98;1.90;;;;;;;11.68;100.00;100118.22;5054717;28;20028;-69
2023/03/24 09:40:30;;;;;;;7.57;1.85;;;;;;;11.57;100.00;100130.16;5039185;28;20028;-69
2023/03/24 09:43:03;;;;;;;6.10;1.50;;;;;;;11.55;100.00;100119.75;5047726;28;20036;-69
2023/03/24 09:45:32;;;;;;;9.30;2.55;;;;;;;11.52;100.00;100112.81;5033823;28;21374;-69
2023/03/24 09:48:01;;;;;;;4.10;1.50;;;;;;;11.49;100.00;100117.94;5039800;28;20029;-69
2023/03/24 09:50:50;;;;;;;7.95;1.83;;;;;;;11.47;100.00;100122.22;5048977;28;20032;-69
2023/03/24 09:53:51;;;;;;;8.65;1.88;;;;;;;11.53;100.00;100127.50;5048319;28;20057;-69
2023/03/24 09:56:19;;;;;;;8.15;2.15;;;;;;;11.50;100.00;100122.28;5047970;28;20051;-69
2023/03/24 09:58:50;;;;;;;8.55;2.10;;;;;;;11.56;100.00;100133.59;5035864;28;20435;-69
2023/03/24 10:01:16;;;;;;;8.30;2.15;;;;;;;11.58;100.00;100127.59;5039885;28;20033;-69
2023/03/24 10:03:43;;;;;;;8.73;1.92;;;;;;;11.65;100.00;100128.56;5030188;28;20051;-69
2023/03/24 10:06:21;;;;;;;9.98;2.22;;;;;;;11.81;100.00;100134.00;5035979;28;20276;-69
2023/03/24 10:09:15;;;;;;;6.45;2.00;;;;;;;11.75;100.00;100132.16;5045487;28;20035;-69
2023/03/24 10:12:02;;;;;;;8.82;1.88;;;;;;;11.73;100.00;100132.16;5038620;28;20036;-69
2023/03/24 10:14:58;;;;;;;7.07;2.38;;;;;;;11.69;100.00;100138.16;5048061;28;20039;-69
2023/03/24 10:17:35;;;;;;;7.57;1.85;;;;;;;11.69;100.00;100134.69;5038804;28;20565;-69
2023/03/24 10:20:25;;;;;;;6.05;1.58;;;;;;;11.51;98.51;100130.94;5046742;28;20525;-69
2023/03/24 10:22:56;;;;;;;9.77;2.28;;;;;;;11.61;100.00;100142.34;5046508;28;20037;-69
2023/03/24 10:25:36;;;;;;;;;;;;;;;11.66;98.51;100140.69;5048044;28;20433;-69
2023/03/24 10:28:18;;;;;;;6.20;1.75;;;;;;;11.56;95.90;100138.78;5044692;28;20541;-69
2023/03/24 10:30:46;;;;;;;7.00;1.70;;;;;;;11.53;97.04;100135.28;5047394;28;20374;-69
2023/03/24 10:33:13;;;;;;;7.00;1.38;;;;;;;11.51;96.85;100136.97;5046860;28;20025;-69
2023/03/24 10:35:58;;;;;;;6.72;1.80;;;;;;;11.65;97.28;100128.56;5040254;28;20044;-68
2023/03/24 10:38:23;;;;;;;9.00;1.67;;;;;;;11.86;97.35;100130.63;5035737;28;20037;-69
2023/03/24 10:40:49;;;;;;;7.25;1.88;;;;;;;12.20;94.18;100132.88;5041333;28;20090;-69
2023/03/24 10:43:18;;;;;;;3.88;1.35;;;;;;;12.42;90.35;100127.97;5039374;28;20032;-69
2023/03/24 10:45:47;;;;;;;4.97;2.13;;;;;;;12.43;88.20;100129.72;5034128;28;20434;-69
2023/03/24 10:48:31;;;;;;;5.75;1.50;;;;;;;12.46;89.10;100134.09;5047033;28;20028;-69
2023/03/24 10:50:57;;;;;;;5.47;1.80;;;;;;;12.39;87.82;100133.13;5037470;28;20112;-70
2023/03/24 10:53:23;;;;;;;5.72;1.80;;;;;;;12.30;89.50;100138.19;5035593;28;20041;-69
2023/03/24 10:55:49;;;;;;;5.03;1.50;;;;;;;12.37;90.85;100140.03;5035528;28;20029;-69
2023/03/24 10:58:27;;;;;;;4.15;1.00;;;;;;;12.32;89.70;100139.09;5038342;28;20887;-69
2023/03/24 11:00:53;;;;;;;7.63;1.83;;;;;;;12.23;91.20;100132.91;5039456;28;20435;-69
2023/03/24 11:03:28;;;;;;;4.80;1.25;;;;;;;12.20;91.32;100126.78;5044876;28;20034;-69
2023/03/24 11:05:58;;;;;;;5.75;1.55;;;;;;;12.14;91.77;100135.41;5033573;28;20029;-68
2023/03/24 11:08:30;;;;;;;6.07;1.57;;;;;;;12.08;91.03;100135.25;5037135;28;20354;-69
2023/03/24 11:10:56;;;;;;;4.55;1.30;;;;;;;12.28;90.82;100138.19;5040139;28;20295;-68
2023/03/24 11:13:22;;;;;;;7.75;1.85;;;;;;;12.51;91.69;100131.53;5038754;28;20377;-69
2023/03/24 11:15:54;;;;;;;6.90;1.50;;;;;;;12.66;90.63;100138.66;5037872;28;20021;-69
2023/03/24 11:18:20;;;;;;;6.55;2.30;;;;;;;12.68;89.30;100134.34;5041192;28;20072;-68
2023/03/24 11:20:52;;;;;;;8.40;1.90;;;;;;;12.71;89.41;100129.19;5055085;28;20546;-68
2023/03/24 11:23:24;;;;;;;7.43;1.90;;;;;;;12.77;89.99;100144.84;5034302;28;20075;-68
2023/03/24 11:26:01;;;;;;;8.68;1.58;;;;;;;12.85;87.74;100145.81;5053829;28;20032;-68
2023/03/24 11:28:27;;;;;;;7.55;1.95;;;;;;;12.88;86.85;100137.16;5040567;28;20543;-69
2023/03/24 11:30:54;;;;;;;8.13;1.73;;;;;;;12.75;85.34;100127.50;5025793;28;20036;-68
2023/03/24 11:33:32;;;;;;;11.73;1.88;;;;;;;12.69;84.77;100121.38;5047716;28;20021;-68
2023/03/24 11:35:57;;;;;;;7.28;1.35;;;;;;;12.72;85.36;100129.19;5036414;28;20017;-68
2023/03/24 11:38:32;;;;;;;6.95;1.98;;;;;;;12.70;84.66;100124.84;5032422;28;20029;-68
2023/03/24 11:41:03;;;;;;;6.22;1.67;;;;;;;12.72;86.20;100121.41;5035436;28;20565;-68